Time;durP1;ratioP1;P1;durP2;ratioP2;P2;SDS_P1;SDS_P2;PMS_P1;PMS_P2;Temp;Humidity;BMP_temperature;BMP_pressure;BME280_temperature;BME280_humidity;BME280_pressure;Samples;Min_cycle;Max_cycle;Signal;HPM_P1;HPM_P2
2023/12/16 00:00:59;;;;;;;2.63;2.08;;;;;;;4.75;100.00;100996.09;5160328;27;20053;-64
2023/12/16 00:03:25;;;;;;;1.85;1.60;;;;;;;4.89;100.00;101003.13;5160552;27;20350;-64
2023/12/16 00:05:53;;;;;;;12.82;8.48;;;;;;;5.16;100.00;101001.38;5160951;27;20250;-64
2023/12/16 00:08:18;;;;;;;14.85;9.70;;;;;;;5.30;100.00;101017.16;5160508;27;20030;-64
2023/12/16 00:10:44;;;;;;;29.55;18.65;;;;;;;5.51;100.00;101011.47;5160952;27;20049;-66
2023/12/16 00:13:09;;;;;;;12.55;8.95;;;;;;;5.62;100.00;101012.47;5160518;27;20037;-66
2023/12/16 00:15:35;;;;;;;7.82;5.50;;;;;;;5.80;100.00;101015.66;5160497;27;20034;-64
2023/12/16 00:18:00;;;;;;;3.25;2.95;;;;;;;5.94;100.00;101013.00;5160710;27;20206;-63
2023/12/16 00:20:26;;;;;;;1.90;1.70;;;;;;;6.02;100.00;101018.59;5161163;27;20045;-64
2023/12/16 00:22:51;;;;;;;1.65;1.40;;;;;;;6.08;100.00;101009.47;5161065;27;20269;-66
2023/12/16 00:25:17;;;;;;;1.45;1.35;;;;;;;6.19;100.00;101014.84;5129526;27;20051;-66
2023/12/16 00:27:42;;;;;;;1.77;1.67;;;;;;;6.27;99.94;101012.56;5139373;27;20173;-63
2023/12/16 00:30:08;;;;;;;1.58;1.48;;;;;;;6.32;99.97;101017.50;5139243;27;20059;-66
2023/12/16 00:32:34;;;;;;;1.08;1.02;;;;;;;6.37;99.69;101020.69;5138957;27;20364;-66
2023/12/16 00:34:59;;;;;;;1.30;0.90;;;;;;;6.43;98.78;101014.16;5139131;27;20053;-64
2023/12/16 00:37:25;;;;;;;1.08;0.73;;;;;;;6.47;97.86;101018.25;5139125;27;20035;-64
2023/12/16 00:39:50;;;;;;;0.80;0.80;;;;;;;6.55;97.69;101021.22;5139667;27;20047;-66
2023/12/16 00:42:15;;;;;;;0.65;0.50;;;;;;;6.57;97.25;101024.59;5138832;27;20043;-66
2023/12/16 00:44:41;;;;;;;0.75;0.50;;;;;;;6.62;96.89;101031.22;5138959;27;20039;-64
2023/12/16 00:47:06;;;;;;;0.60;0.50;;;;;;;6.65;96.69;101019.63;5138747;27;20068;-64
2023/12/16 00:49:32;;;;;;;1.48;0.50;;;;;;;6.68;95.84;101032.59;5138738;27;20400;-66
2023/12/16 00:51:58;;;;;;;0.75;0.63;;;;;;;6.65;95.78;101038.06;5139312;27;20039;-63
2023/12/16 00:54:24;;;;;;;1.92;0.85;;;;;;;6.57;95.38;101038.56;5140030;27;20027;-66
2023/12/16 00:56:49;;;;;;;2.28;0.70;;;;;;;6.46;96.62;101032.38;5139222;27;20042;-64
2023/12/16 00:59:16;;;;;;;0.50;0.50;;;;;;;6.40;96.82;101036.25;5138371;27;20031;-64
2023/12/16 01:01:41;;;;;;;0.50;0.50;;;;;;;6.41;97.94;101037.94;5138710;27;20043;-63
2023/12/16 01:04:06;;;;;;;1.08;0.60;;;;;;;6.44;97.36;101043.00;5137816;27;20387;-66
2023/12/16 01:06:32;;;;;;;0.88;0.70;;;;;;;6.44;96.41;101040.38;5138135;27;20053;-64
2023/12/16 01:08:57;;;;;;;0.90;0.50;;;;;;;6.43;96.76;101041.31;5138207;27;20721;-66
2023/12/16 01:11:23;;;;;;;1.45;0.70;;;;;;;6.40;96.91;101041.53;5139223;27;20095;-65
2023/12/16 01:13:49;;;;;;;0.50;0.50;;;;;;;6.42;96.96;101041.41;5139670;27;20325;-66
2023/12/16 01:16:14;;;;;;;0.77;0.77;;;;;;;6.39;96.80;101035.41;5139159;27;20046;-66
2023/12/16 01:18:40;;;;;;;1.10;0.80;;;;;;;6.43;97.37;101033.41;5138850;27;20047;-66
2023/12/16 01:21:06;;;;;;;0.70;0.70;;;;;;;6.46;97.56;101037.63;5138371;27;20039;-66
2023/12/16 01:23:32;;;;;;;0.90;0.73;;;;;;;6.46;97.08;101042.88;5139094;27;20101;-66
2023/12/16 01:25:58;;;;;;;0.88;0.63;;;;;;;6.48;97.39;101033.09;5139592;27;20031;-66
2023/12/16 01:28:23;;;;;;;1.08;0.70;;;;;;;6.51;97.33;101032.91;5139128;27;20064;-66
2023/12/16 01:30:48;;;;;;;2.42;1.30;;;;;;;6.51;96.50;101038.16;5139240;27;20038;-66
2023/12/16 01:33:14;;;;;;;4.68;2.38;;;;;;;6.50;95.99;101032.06;5140364;27;20037;-64
2023/12/16 01:35:40;;;;;;;3.65;1.63;;;;;;;6.52;96.76;101034.59;5143682;27;20039;-64
2023/12/16 01:38:05;;;;;;;1.35;1.25;;;;;;;6.56;96.19;101031.63;5143070;27;20066;-64
2023/12/16 01:40:30;;;;;;;1.60;1.50;;;;;;;6.53;95.68;101038.91;5144050;27;20039;-66
2023/12/16 01:42:56;;;;;;;2.38;1.70;;;;;;;6.53;95.86;101034.47;5143687;27;20321;-66
2023/12/16 01:45:21;;;;;;;8.38;3.67;;;;;;;6.51;96.51;101040.78;5143109;27;20038;-64
2023/12/16 01:47:47;;;;;;;7.53;3.83;;;;;;;6.50;95.87;101047.84;5143502;27;20217;-66
2023/12/16 01:50:13;;;;;;;4.22;2.20;;;;;;;6.51;96.06;101046.91;5142358;27;20107;-64
2023/12/16 01:52:42;;;;;;;4.47;3.35;;;;;;;6.49;96.17;101038.25;5142595;27;20039;-64
2023/12/16 01:55:12;;;;;;;3.72;2.10;;;;;;;6.48;96.02;101047.09;5142417;27;20071;-66
2023/12/16 01:57:40;;;;;;;4.55;2.80;;;;;;;6.46;96.84;101054.25;5142538;27;20330;-64
2023/12/16 02:00:06;;;;;;;5.25;4.20;;;;;;;6.45;96.98;101054.38;5142230;27;20034;-64
2023/12/16 02:02:32;;;;;;;4.70;3.83;;;;;;;6.24;97.63;101053.97;5142252;27;20272;-67
2023/12/16 02:04:57;;;;;;;4.88;3.00;;;;;;;6.18;97.45;101051.75;5142580;27;20038;-66
2023/12/16 02:07:23;;;;;;;7.38;3.55;;;;;;;6.08;97.11;101049.75;5142726;27;20038;-64
2023/12/16 02:09:49;;;;;;;9.82;7.82;;;;;;;5.94;98.11;101048.97;5142992;27;20043;-63
2023/12/16 02:12:14;;;;;;;9.02;6.80;;;;;;;5.91;98.90;101060.53;5142176;27;20253;-65
2023/12/16 02:14:40;;;;;;;15.77;11.18;;;;;;;5.96;98.90;101052.34;5142867;27;20428;-66
2023/12/16 02:17:05;;;;;;;19.30;13.23;;;;;;;5.77;99.32;101055.28;5141987;27;20038;-64
2023/12/16 02:19:32;;;;;;;5.03;4.53;;;;;;;5.74;100.00;101053.72;5142068;27;20076;-64
2023/12/16 02:21:59;;;;;;;2.47;2.20;;;;;;;5.80;100.00;101055.09;5141662;27;20035;-64
2023/12/16 02:24:26;;;;;;;2.22;1.77;;;;;;;5.70;100.00;101054.00;5132386;27;20042;-66
2023/12/16 02:26:52;;;;;;;2.60;1.77;;;;;;;5.54;100.00;101063.81;5141962;27;20031;-64
2023/12/16 02:29:17;;;;;;;4.72;2.22;;;;;;;5.67;100.00;101062.09;5141772;27;20031;-64
2023/12/16 02:31:43;;;;;;;3.05;2.75;;;;;;;5.57;100.00;101061.81;5142183;27;20062;-65
2023/12/16 02:34:08;;;;;;;3.88;3.20;;;;;;;5.48;100.00;101067.66;5142048;27;20034;-64
2023/12/16 02:36:34;;;;;;;6.80;4.40;;;;;;;5.25;100.00;101066.50;5142063;27;20399;-66
2023/12/16 02:38:59;;;;;;;10.43;7.30;;;;;;;5.26;100.00;101067.34;5141284;27;20034;-64
2023/12/16 02:41:25;;;;;;;14.27;10.55;;;;;;;5.32;100.00;101070.41;5141442;27;20076;-65
2023/12/16 02:43:50;;;;;;;14.77;11.73;;;;;;;5.25;100.00;101066.50;5141294;27;20035;-64
2023/12/16 02:46:15;;;;;;;5.32;4.70;;;;;;;5.36;100.00;101074.53;5142416;27;20037;-64
2023/12/16 02:48:41;;;;;;;6.43;3.85;;;;;;;5.38;100.00;101077.06;5142133;27;20092;-64
2023/12/16 02:51:16;;;;;;;5.45;3.80;;;;;;;5.30;100.00;101080.19;5142244;27;20360;-64
2023/12/16 02:53:41;;;;;;;6.00;3.85;;;;;;;5.29;100.00;101085.53;5141515;27;20074;-63
2023/12/16 02:56:07;;;;;;;7.20;4.40;;;;;;;5.23;100.00;101092.00;5141239;27;20051;-66
2023/12/16 02:58:32;;;;;;;5.60;3.90;;;;;;;5.19;100.00;101092.25;5140985;27;20295;-64
2023/12/16 03:00:59;;;;;;;5.45;3.67;;;;;;;5.38;100.00;101093.69;5140651;27;20148;-66
2023/12/16 03:03:24;;;;;;;4.18;3.47;;;;;;;5.04;100.00;101091.41;5141122;27;20098;-66
2023/12/16 03:05:50;;;;;;;3.72;2.80;;;;;;;5.14;100.00;101096.00;5140829;27;20061;-63
2023/12/16 03:08:15;;;;;;;4.45;3.42;;;;;;;5.31;100.00;101094.16;5140652;27;20363;-66
2023/12/16 03:10:40;;;;;;;4.47;3.22;;;;;;;5.37;100.00;101102.50;5141118;27;20041;-64
2023/12/16 03:13:06;;;;;;;3.75;2.90;;;;;;;5.42;100.00;101100.41;5140898;27;20039;-66
2023/12/16 03:15:31;;;;;;;3.67;2.92;;;;;;;5.56;100.00;101104.81;5141647;27;20362;-65
2023/12/16 03:17:57;;;;;;;7.75;4.15;;;;;;;5.52;100.00;101105.09;5141021;27;20038;-64
2023/12/16 03:20:22;;;;;;;4.53;2.90;;;;;;;5.43;100.00;101112.63;5140587;27;20039;-66
2023/12/16 03:22:48;;;;;;;4.55;3.20;;;;;;;5.60;100.00;101115.97;5140638;27;20027;-66
2023/12/16 03:25:14;;;;;;;3.90;2.97;;;;;;;5.61;100.00;101118.50;5140846;27;20333;-64
2023/12/16 03:27:39;;;;;;;3.67;2.75;;;;;;;5.44;100.00;101121.34;5141010;27;20060;-66
2023/12/16 03:30:05;;;;;;;4.35;2.60;;;;;;;5.38;100.00;101119.09;5141450;27;20035;-64
2023/12/16 03:32:30;;;;;;;4.45;3.28;;;;;;;5.51;100.00;101116.56;5141203;27;20046;-66
2023/12/16 03:34:56;;;;;;;5.70;3.47;;;;;;;5.48;100.00;101124.63;5141414;27;20035;-65
2023/12/16 03:37:22;;;;;;;4.90;3.42;;;;;;;5.62;100.00;101137.75;5141677;27;20313;-63
2023/12/16 03:39:47;;;;;;;5.90;4.00;;;;;;;5.57;100.00;101137.19;5131148;27;20042;-64
2023/12/16 03:42:13;;;;;;;4.43;2.88;;;;;;;5.54;100.00;101132.97;5140572;27;20027;-66
2023/12/16 03:44:38;;;;;;;5.30;3.22;;;;;;;5.50;100.00;101149.84;5141130;27;20046;-66
2023/12/16 03:47:03;;;;;;;5.45;2.88;;;;;;;5.53;100.00;101141.78;5140626;27;20038;-66
2023/12/16 03:49:29;;;;;;;4.25;2.90;;;;;;;5.45;100.00;101151.94;5140633;27;20064;-66
2023/12/16 03:51:56;;;;;;;8.13;2.50;;;;;;;5.30;100.00;101148.47;5141212;27;20043;-64
2023/12/16 03:54:22;;;;;;;5.22;2.88;;;;;;;5.25;100.00;101154.94;5140752;27;20035;-66
2023/12/16 03:56:47;;;;;;;4.70;2.92;;;;;;;5.40;100.00;101160.09;5139713;27;20568;-63
2023/12/16 03:59:13;;;;;;;4.93;2.90;;;;;;;5.56;100.00;101167.03;5140132;27;20756;-66
2023/12/16 04:01:44;;;;;;;5.60;3.30;;;;;;;5.67;100.00;101164.56;5139574;27;20054;-66
2023/12/16 04:04:09;;;;;;;4.78;3.25;;;;;;;5.63;100.00;101168.34;5139698;27;20422;-67
2023/12/16 04:06:34;;;;;;;5.07;3.40;;;;;;;5.45;100.00;101168.53;5140921;27;20031;-66
2023/12/16 04:09:00;;;;;;;4.45;3.50;;;;;;;5.33;100.00;101163.19;5140506;27;20206;-64
2023/12/16 04:11:25;;;;;;;3.25;2.95;;;;;;;5.31;100.00;101167.69;5140462;27;20039;-66
2023/12/16 04:13:50;;;;;;;5.72;3.58;;;;;;;5.40;100.00;101175.00;5139792;27;20348;-66
2023/12/16 04:16:16;;;;;;;4.53;3.42;;;;;;;5.50;100.00;101176.13;5140525;27;20039;-64
2023/12/16 04:18:41;;;;;;;4.80;3.63;;;;;;;5.54;100.00;101185.50;5140168;27;20038;-66
2023/12/16 04:21:07;;;;;;;5.57;3.22;;;;;;;5.60;100.00;101182.50;5140495;27;20039;-66
2023/12/16 04:23:32;;;;;;;9.60;6.88;;;;;;;5.66;100.00;101176.88;5140019;27;20353;-66
2023/12/16 04:25:58;;;;;;;8.23;5.88;;;;;;;5.64;100.00;101180.53;5139553;27;20035;-66
2023/12/16 04:28:23;;;;;;;10.18;5.47;;;;;;;5.71;100.00;101198.44;5139404;27;20027;-66
2023/12/16 04:30:49;;;;;;;13.55;6.03;;;;;;;5.76;100.00;101196.38;5139704;27;20035;-63
2023/12/16 04:33:14;;;;;;;14.40;5.53;;;;;;;5.76;100.00;101195.53;5139869;27;20074;-66
2023/12/16 04:35:40;;;;;;;10.73;5.78;;;;;;;5.67;99.85;101196.94;5140337;27;20781;-66
2023/12/16 04:38:05;;;;;;;8.25;5.63;;;;;;;5.46;100.00;101200.91;5140403;27;20035;-66
2023/12/16 04:40:31;;;;;;;11.20;5.95;;;;;;;5.28;100.00;101210.75;5140482;27;20039;-66
2023/12/16 04:42:56;;;;;;;8.60;5.40;;;;;;;5.18;100.00;101206.09;5139644;27;20043;-64
2023/12/16 04:45:21;;;;;;;13.52;8.18;;;;;;;5.15;100.00;101207.13;5140282;27;20043;-66
2023/12/16 04:47:47;;;;;;;15.57;11.40;;;;;;;5.08;100.00;101204.03;5139577;27;20035;-63
2023/12/16 04:50:12;;;;;;;23.80;14.02;;;;;;;5.19;100.00;101210.41;5139151;27;20045;-67
2023/12/16 04:52:38;;;;;;;17.92;10.43;;;;;;;5.26;100.00;101217.03;5139116;27;20042;-66
2023/12/16 04:55:03;;;;;;;13.25;8.07;;;;;;;5.35;100.00;101227.81;5139984;27;20613;-66
2023/12/16 04:57:29;;;;;;;7.47;5.55;;;;;;;5.42;100.00;101233.56;5139158;27;20069;-66
2023/12/16 04:59:54;;;;;;;7.07;4.63;;;;;;;5.44;100.00;101236.94;5139203;27;20035;-66
2023/12/16 05:02:20;;;;;;;5.25;3.97;;;;;;;5.38;100.00;101240.78;5139006;27;20237;-66
2023/12/16 05:04:45;;;;;;;4.45;3.13;;;;;;;5.37;100.00;101240.88;5139146;27;20047;-65
2023/12/16 05:07:11;;;;;;;5.10;3.72;;;;;;;5.36;100.00;101239.19;5138349;27;20202;-63
2023/12/16 05:09:36;;;;;;;7.90;4.55;;;;;;;5.20;100.00;101244.50;5139760;27;20026;-66
2023/12/16 05:12:02;;;;;;;7.13;4.75;;;;;;;5.03;100.00;101244.63;5139714;27;20027;-66
2023/12/16 05:14:27;;;;;;;7.90;4.93;;;;;;;4.82;100.00;101242.31;5139211;27;20332;-64
2023/12/16 05:16:54;;;;;;;6.65;4.70;;;;;;;4.70;100.00;101243.03;5139677;27;20045;-65
2023/12/16 05:19:19;;;;;;;7.72;5.25;;;;;;;4.61;100.00;101248.78;5139458;27;20072;-66
2023/12/16 05:21:44;;;;;;;8.15;5.32;;;;;;;4.49;100.00;101242.47;5140203;27;20267;-65
2023/12/16 05:24:10;;;;;;;8.13;5.28;;;;;;;4.48;100.00;101251.25;5139469;27;20047;-63
2023/12/16 05:26:35;;;;;;;7.93;5.97;;;;;;;4.49;100.00;101254.72;5139789;27;20050;-66
2023/12/16 05:29:01;;;;;;;7.97;4.43;;;;;;;4.48;100.00;101235.53;5139246;27;20039;-66
2023/12/16 05:31:26;;;;;;;9.45;6.63;;;;;;;4.56;100.00;101250.84;5139124;27;20034;-66
2023/12/16 05:33:51;;;;;;;11.07;7.10;;;;;;;4.62;100.00;101255.72;5139230;27;20036;-66
2023/12/16 05:36:17;;;;;;;8.45;6.07;;;;;;;4.54;100.00;101264.97;5139755;27;20174;-66
2023/12/16 05:38:42;;;;;;;8.80;5.95;;;;;;;4.55;100.00;101262.25;5139181;27;20035;-66
2023/12/16 05:41:08;;;;;;;11.68;6.85;;;;;;;4.55;100.00;101264.88;5139093;27;20043;-66
2023/12/16 05:43:34;;;;;;;7.93;5.93;;;;;;;4.64;100.00;101259.13;5139482;27;20042;-65
2023/12/16 05:45:59;;;;;;;6.38;5.25;;;;;;;4.64;100.00;101264.34;5139303;27;20038;-66
2023/12/16 05:48:25;;;;;;;5.25;4.18;;;;;;;4.59;100.00;101263.78;5138333;27;20236;-66
2023/12/16 05:50:50;;;;;;;4.78;3.88;;;;;;;4.51;100.00;101265.97;5138903;27;20039;-64
2023/12/16 05:53:15;;;;;;;8.43;6.20;;;;;;;4.54;100.00;101264.97;5139621;27;20076;-66
2023/12/16 05:55:43;;;;;;;4.72;3.70;;;;;;;4.62;100.00;101276.72;5139271;27;20313;-66
2023/12/16 05:58:09;;;;;;;6.10;4.15;;;;;;;4.75;100.00;101277.72;5139309;27;20086;-66
2023/12/16 06:00:34;;;;;;;7.32;4.88;;;;;;;4.92;100.00;101289.03;5139038;27;20198;-63
2023/12/16 06:03:00;;;;;;;4.38;3.33;;;;;;;4.89;100.00;101286.56;5138855;27;20578;-65
2023/12/16 06:05:25;;;;;;;9.65;7.57;;;;;;;4.72;100.00;101284.91;5138918;27;20035;-64
2023/12/16 06:07:50;;;;;;;13.80;9.98;;;;;;;4.71;100.00;101296.34;5138698;27;20041;-65
2023/12/16 06:10:16;;;;;;;13.48;10.40;;;;;;;4.88;100.00;101298.84;5138655;27;20037;-66
2023/12/16 06:12:41;;;;;;;14.85;8.82;;;;;;;4.86;100.00;101299.88;5138230;27;20031;-66
2023/12/16 06:15:07;;;;;;;11.90;6.97;;;;;;;4.73;100.00;101311.06;5138210;27;20228;-64
2023/12/16 06:17:33;;;;;;;8.80;6.15;;;;;;;4.85;100.00;101314.78;5138942;27;20035;-67
2023/12/16 06:19:58;;;;;;;8.85;5.80;;;;;;;4.94;100.00;101329.16;5140831;27;20280;-64
2023/12/16 06:22:24;;;;;;;10.48;7.43;;;;;;;4.96;100.00;101324.66;5141626;27;20041;-65
2023/12/16 06:24:49;;;;;;;10.98;6.97;;;;;;;4.89;100.00;101331.19;5141825;27;20352;-64
2023/12/16 06:27:15;;;;;;;10.10;6.38;;;;;;;4.90;100.00;101330.25;5141798;27;20038;-66
2023/12/16 06:29:40;;;;;;;8.88;5.65;;;;;;;4.93;100.00;101330.94;5142846;27;20071;-63
2023/12/16 06:32:06;;;;;;;17.27;11.63;;;;;;;5.04;100.00;101346.91;5142309;27;20045;-64
2023/12/16 06:34:31;;;;;;;14.60;9.52;;;;;;;5.07;100.00;101338.88;5142543;27;20039;-63
2023/12/16 06:36:57;;;;;;;15.38;9.98;;;;;;;5.13;100.00;101348.16;5142551;27;20038;-66
2023/12/16 06:39:22;;;;;;;19.67;12.85;;;;;;;5.15;100.00;101356.81;5142443;27;20038;-65
2023/12/16 06:41:48;;;;;;;21.50;15.95;;;;;;;5.21;100.00;101367.00;5142711;27;20321;-63
2023/12/16 06:44:13;;;;;;;27.67;17.08;;;;;;;5.12;100.00;101370.09;5142416;27;20062;-65
2023/12/16 06:46:38;;;;;;;24.77;16.63;;;;;;;5.23;100.00;101380.03;5142761;27;20045;-66
2023/12/16 06:49:04;;;;;;;22.73;15.68;;;;;;;5.29;100.00;101387.56;5142603;27;20030;-64
2023/12/16 06:51:29;;;;;;;16.25;12.32;;;;;;;5.28;100.00;101391.13;5141658;27;20095;-65
2023/12/16 06:53:55;;;;;;;19.20;13.05;;;;;;;5.31;100.00;101394.41;5142450;27;20039;-66
2023/12/16 06:56:20;;;;;;;18.55;11.23;;;;;;;5.30;100.00;101402.38;5142620;27;20385;-66
2023/12/16 06:58:47;;;;;;;22.10;14.23;;;;;;;5.34;100.00;101398.66;5141874;27;20043;-64
2023/12/16 07:01:13;;;;;;;18.30;12.90;;;;;;;5.28;100.00;101409.50;5141913;27;20050;-64
2023/12/16 07:03:38;;;;;;;15.02;10.32;;;;;;;5.38;100.00;101416.78;5141953;27;20047;-66
2023/12/16 07:06:05;;;;;;;14.98;11.68;;;;;;;5.28;100.00;101412.97;5142213;27;20047;-65
2023/12/16 07:08:30;;;;;;;17.52;11.77;;;;;;;5.24;100.00;101432.47;5141352;27;20229;-65
2023/12/16 07:10:56;;;;;;;20.25;13.07;;;;;;;5.12;100.00;101420.00;5141470;27;20031;-66
2023/12/16 07:13:21;;;;;;;18.15;12.57;;;;;;;5.11;100.00;101428.81;5141640;27;20108;-64
2023/12/16 07:15:47;;;;;;;19.65;13.02;;;;;;;5.16;100.00;101441.69;5141520;27;20039;-64
2023/12/16 07:18:12;;;;;;;20.30;13.68;;;;;;;5.17;100.00;101438.13;5141539;27;20037;-66
2023/12/16 07:20:38;;;;;;;18.48;13.27;;;;;;;5.20;100.00;101441.44;5141156;27;20080;-66
2023/12/16 07:23:04;;;;;;;19.65;12.73;;;;;;;5.26;100.00;101446.34;5141301;27;20042;-64
2023/12/16 07:25:30;;;;;;;19.08;12.45;;;;;;;5.25;100.00;101441.19;5140666;27;20364;-66
2023/12/16 07:27:56;;;;;;;21.02;13.05;;;;;;;5.24;100.00;101453.47;5141316;27;20068;-66
2023/12/16 07:30:21;;;;;;;16.98;11.93;;;;;;;5.19;100.00;101446.75;5140437;27;20027;-65
2023/12/16 07:32:47;;;;;;;12.70;10.00;;;;;;;5.17;100.00;101444.22;5141198;27;20031;-64
2023/12/16 07:35:15;;;;;;;12.02;9.52;;;;;;;5.08;100.00;101448.22;5141522;27;20031;-64
2023/12/16 07:37:43;;;;;;;14.07;8.52;;;;;;;5.07;100.00;101459.63;5141388;27;20031;-66
2023/12/16 07:40:10;;;;;;;15.32;9.02;;;;;;;5.19;100.00;101458.09;5141148;27;20037;-64
2023/12/16 07:42:39;;;;;;;10.50;7.80;;;;;;;5.27;100.00;101462.97;5140880;27;20355;-66
2023/12/16 07:45:05;;;;;;;15.50;8.65;;;;;;;5.37;100.00;101467.63;5140791;27;20087;-64
2023/12/16 07:47:32;;;;;;;21.33;10.48;;;;;;;5.50;100.00;101473.00;5140251;27;20060;-64
2023/12/16 07:49:58;;;;;;;17.38;9.90;;;;;;;5.40;100.00;101463.97;5140107;27;20039;-66
2023/12/16 07:52:23;;;;;;;14.15;7.88;;;;;;;5.29;100.00;101469.81;5140163;27;20343;-64
2023/12/16 07:54:50;;;;;;;10.25;7.43;;;;;;;5.24;100.00;101482.38;5140039;27;20039;-63
2023/12/16 07:57:15;;;;;;;12.85;8.43;;;;;;;5.21;100.00;101484.31;5140056;27;20605;-64
2023/12/16 07:59:41;;;;;;;14.77;8.00;;;;;;;5.11;100.00;101479.53;5140263;27;20332;-66
2023/12/16 08:02:08;;;;;;;12.93;8.45;;;;;;;5.01;100.00;101483.59;5122040;27;20058;-66
2023/12/16 08:04:38;;;;;;;11.75;7.40;;;;;;;4.94;100.00;101490.13;5140745;27;20039;-65
2023/12/16 08:07:03;;;;;;;8.75;5.35;;;;;;;4.99;100.00;101493.34;5140885;27;20057;-63
2023/12/16 08:09:29;;;;;;;8.05;6.03;;;;;;;4.65;100.00;101496.09;5140129;27;20039;-66
2023/12/16 08:11:58;;;;;;;8.38;5.85;;;;;;;4.82;100.00;101494.25;5151446;27;20035;-64
2023/12/16 08:14:24;;;;;;;10.30;6.32;;;;;;;4.96;100.00;101503.16;5142929;27;20031;-63
2023/12/16 08:16:49;;;;;;;9.23;5.90;;;;;;;5.06;100.00;101506.97;5160185;27;20097;-66
2023/12/16 08:19:15;;;;;;;8.27;6.05;;;;;;;5.13;100.00;101509.19;5159226;27;20031;-65
2023/12/16 08:21:40;;;;;;;9.75;5.70;;;;;;;5.22;100.00;101512.28;5160345;27;20042;-64
2023/12/16 08:24:06;;;;;;;10.25;6.45;;;;;;;5.17;100.00;101512.50;5159419;27;20042;-65
2023/12/16 08:26:31;;;;;;;8.30;6.53;;;;;;;5.05;100.00;101500.88;5160375;27;20030;-66
2023/12/16 08:28:57;;;;;;;9.13;5.70;;;;;;;5.04;100.00;101514.09;5158837;27;20035;-65
2023/12/16 08:31:22;;;;;;;8.10;5.90;;;;;;;4.91;100.00;101515.69;5158754;27;20050;-66
2023/12/16 08:33:47;;;;;;;9.23;5.53;;;;;;;4.93;100.00;101525.19;5159506;27;20030;-66
2023/12/16 08:36:13;;;;;;;6.63;5.38;;;;;;;4.98;100.00;101528.41;5160137;27;20034;-65
2023/12/16 08:38:39;;;;;;;9.60;6.28;;;;;;;4.93;100.00;101532.22;5159829;27;20030;-64
2023/12/16 08:41:10;;;;;;;9.68;7.72;;;;;;;4.77;100.00;101525.16;5159515;27;20030;-64
2023/12/16 08:43:36;;;;;;;9.80;7.68;;;;;;;4.91;100.00;101523.56;5159540;27;20031;-64
2023/12/16 08:46:03;;;;;;;12.93;7.85;;;;;;;4.91;100.00;101524.41;5141644;27;20088;-66
2023/12/16 08:48:28;;;;;;;9.73;7.90;;;;;;;5.00;100.00;101523.06;5160373;27;20038;-66
2023/12/16 08:50:56;;;;;;;8.60;6.82;;;;;;;5.00;100.00;101525.69;5160731;27;20299;-63
2023/12/16 08:53:22;;;;;;;7.80;5.75;;;;;;;5.02;100.00;101522.06;5160751;27;20026;-66
2023/12/16 08:55:47;;;;;;;9.30;7.07;;;;;;;5.04;100.00;101527.22;5159691;27;20034;-66
2023/12/16 08:58:13;;;;;;;8.20;6.22;;;;;;;5.11;100.00;101533.84;5159767;27;20049;-64
2023/12/16 09:00:38;;;;;;;7.22;5.97;;;;;;;5.16;100.00;101530.97;5160190;27;20031;-65
2023/12/16 09:03:03;;;;;;;8.70;5.68;;;;;;;5.31;100.00;101525.75;5160034;27;20038;-64
2023/12/16 09:05:31;;;;;;;8.90;5.82;;;;;;;5.45;100.00;101524.97;5161105;27;20052;-63
2023/12/16 09:07:56;;;;;;;13.00;8.15;;;;;;;5.48;100.00;101521.31;5160536;27;20031;-64
2023/12/16 09:10:21;;;;;;;13.25;7.85;;;;;;;5.37;100.00;101517.53;5160087;27;20115;-66
2023/12/16 09:12:47;;;;;;;11.90;7.50;;;;;;;5.20;100.00;101517.63;5159907;27;20031;-66
2023/12/16 09:15:13;;;;;;;11.05;7.70;;;;;;;5.11;100.00;101512.84;5160216;27;20308;-66
2023/12/16 09:17:39;;;;;;;13.43;8.23;;;;;;;5.11;100.00;101508.44;5160359;27;20030;-67
2023/12/16 09:20:05;;;;;;;15.48;8.70;;;;;;;5.17;100.00;101519.53;5159760;27;20339;-64
2023/12/16 09:22:30;;;;;;;17.33;10.77;;;;;;;5.17;100.00;101511.66;5159361;27;20084;-66
2023/12/16 09:24:56;;;;;;;19.13;10.25;;;;;;;5.14;100.00;101515.28;5158408;27;20035;-65
2023/12/16 09:27:21;;;;;;;18.90;10.02;;;;;;;5.13;100.00;101510.97;5158180;27;20027;-66
2023/12/16 09:29:47;;;;;;;19.45;12.45;;;;;;;4.99;100.00;101514.34;5158332;27;20035;-66
2023/12/16 09:32:12;;;;;;;21.40;11.98;;;;;;;5.01;100.00;101509.88;5159095;27;20030;-63
2023/12/16 09:34:38;;;;;;;14.93;9.27;;;;;;;5.10;100.00;101505.88;5159516;27;20078;-65
2023/12/16 09:37:03;;;;;;;69.40;31.98;;;;;;;5.03;100.00;101507.16;5158687;27;20030;-65
2023/12/16 09:39:29;;;;;;;25.40;14.25;;;;;;;5.01;100.00;101501.97;5159309;27;20038;-66
2023/12/16 09:41:57;;;;;;;24.77;17.50;;;;;;;5.00;100.00;101505.53;5158728;27;20049;-64
2023/12/16 09:44:24;;;;;;;28.02;18.00;;;;;;;4.97;100.00;101504.84;5159181;27;20053;-66
2023/12/16 09:46:50;;;;;;;19.35;13.80;;;;;;;4.85;100.00;101511.63;5158899;27;20035;-64
2023/12/16 09:49:16;;;;;;;15.52;13.05;;;;;;;4.87;100.00;101511.53;5158690;27;20407;-66
2023/12/16 09:51:42;;;;;;;13.80;9.95;;;;;;;4.88;100.00;101519.31;5159306;27;20041;-63
2023/12/16 09:54:08;;;;;;;14.40;9.68;;;;;;;4.91;100.00;101519.16;5160520;27;20035;-64
2023/12/16 09:56:34;;;;;;;12.02;8.02;;;;;;;4.87;100.00;101517.63;5163824;27;20240;-66
2023/12/16 09:59:02;;;;;;;14.27;8.75;;;;;;;4.88;100.00;101513.22;5162678;27;20046;-63
2023/12/16 10:01:28;;;;;;;16.40;10.48;;;;;;;4.89;100.00;101513.16;5160832;27;20050;-63
2023/12/16 10:03:53;;;;;;;15.63;10.52;;;;;;;4.86;100.00;101512.47;5161220;27;20027;-64
2023/12/16 10:06:18;;;;;;;30.80;18.50;;;;;;;4.86;100.00;101508.06;5161343;27;20039;-64
2023/12/16 10:08:44;;;;;;;16.65;10.88;;;;;;;4.92;100.00;101510.34;5160864;27;20409;-66
2023/12/16 10:11:10;;;;;;;15.25;10.30;;;;;;;4.92;100.00;101502.47;5160425;27;20131;-66
2023/12/16 10:13:58;;;;;;;19.70;12.60;;;;;;;5.07;100.00;101506.06;5160162;27;20412;-66
2023/12/16 10:16:24;;;;;;;16.10;9.63;;;;;;;5.09;100.00;101510.28;5160672;27;20043;-66
2023/12/16 10:18:54;;;;;;;16.65;10.02;;;;;;;5.10;100.00;101511.97;5160516;27;20037;-66
2023/12/16 10:21:30;;;;;;;21.45;11.27;;;;;;;5.04;100.00;101508.84;5161264;27;20258;-63
2023/12/16 10:23:58;;;;;;;29.58;13.55;;;;;;;5.02;100.00;101511.56;5160762;27;20062;-65
2023/12/16 10:26:24;;;;;;;62.40;25.88;;;;;;;5.04;100.00;101512.31;5161069;27;20071;-64
2023/12/16 10:28:52;;;;;;;39.70;16.92;;;;;;;5.07;100.00;101516.56;5162196;27;20070;-66
2023/12/16 10:31:21;;;;;;;28.63;13.60;;;;;;;5.02;100.00;101513.34;5162246;27;20031;-64
2023/12/16 10:33:49;;;;;;;38.40;17.95;;;;;;;5.00;100.00;101517.81;5161748;27;20050;-64
2023/12/16 10:36:15;;;;;;;44.90;18.30;;;;;;;5.12;100.00;101522.41;5160742;27;20088;-63
2023/12/16 10:38:41;;;;;;;34.83;19.80;;;;;;;5.27;100.00;101520.75;5160333;27;20027;-63
2023/12/16 10:41:06;;;;;;;21.52;12.60;;;;;;;5.25;100.00;101514.72;5160549;27;20116;-66
2023/12/16 10:43:32;;;;;;;25.42;11.65;;;;;;;5.20;100.00;101507.09;5161324;27;20097;-64
2023/12/16 10:46:03;;;;;;;17.77;11.27;;;;;;;5.21;100.00;101507.94;5161961;27;20320;-64
2023/12/16 10:48:32;;;;;;;18.80;12.23;;;;;;;5.27;100.00;101511.09;5161605;27;20343;-64
2023/12/16 10:51:01;;;;;;;25.52;16.27;;;;;;;5.22;100.00;101504.41;5161036;27;20348;-66
2023/12/16 10:53:39;;;;;;;22.13;13.18;;;;;;;5.24;100.00;101503.38;5161749;27;20102;-63
2023/12/16 10:56:17;;;;;;;22.65;12.07;;;;;;;5.19;100.00;101515.03;5143144;27;20352;-66
2023/12/16 10:58:50;;;;;;;27.67;15.23;;;;;;;5.22;100.00;101513.13;5162116;27;20063;-64
2023/12/16 11:01:21;;;;;;;21.25;13.40;;;;;;;5.27;100.00;101507.63;5161785;27;20038;-64
2023/12/16 11:03:52;;;;;;;20.92;12.90;;;;;;;5.26;100.00;101498.88;5161697;27;20488;-67
2023/12/16 11:06:37;;;;;;;20.85;12.20;;;;;;;5.31;100.00;101509.13;5159895;27;20114;-65
2023/12/16 11:09:05;;;;;;;23.80;13.50;;;;;;;5.36;100.00;101507.09;5160535;27;20034;-66
2023/12/16 11:11:31;;;;;;;26.75;13.18;;;;;;;5.13;100.00;101503.09;5161465;27;20042;-63
2023/12/16 11:13:57;;;;;;;27.50;16.30;;;;;;;5.19;100.00;101500.13;5161913;27;20548;-64
2023/12/16 11:16:41;;;;;;;24.35;15.18;;;;;;;5.29;100.00;101505.75;5161192;27;20042;-65